sensor_id;sensor_type;location;lat;lon;timestamp;P1;durP1;ratioP1;P2;durP2;ratioP2
47513;SDS011;33951;51.988;5.910;2022-11-04T00:02:33;15.75;;;11.20;;
47513;SDS011;33951;51.988;5.910;2022-11-04T00:04:59;17.42;;;10.98;;
47513;SDS011;33951;51.988;5.910;2022-11-04T00:14:34;20.92;;;14.27;;
47513;SDS011;33951;51.988;5.910;2022-11-04T00:17:09;20.75;;;14.18;;
47513;SDS011;33951;51.988;5.910;2022-11-04T00:20:03;21.00;;;15.55;;
47513;SDS011;33951;51.988;5.910;2022-11-04T00:23:10;18.63;;;14.25;;
47513;SDS011;33951;51.988;5.910;2022-11-04T00:26:12;22.25;;;15.85;;
47513;SDS011;33951;51.988;5.910;2022-11-04T00:31:36;28.38;;;18.73;;
47513;SDS011;33951;51.988;5.910;2022-11-04T00:34:21;28.75;;;19.63;;
47513;SDS011;33951;51.988;5.910;2022-11-04T00:37:15;28.75;;;21.80;;
47513;SDS011;33951;51.988;5.910;2022-11-04T00:39:59;30.58;;;23.95;;
47513;SDS011;33951;51.988;5.910;2022-11-04T00:42:30;37.05;;;27.73;;
47513;SDS011;33951;51.988;5.910;2022-11-04T00:44:59;36.63;;;28.70;;
47513;SDS011;33951;51.988;5.910;2022-11-04T00:47:25;37.28;;;29.38;;
47513;SDS011;33951;51.988;5.910;2022-11-04T00:50:02;37.47;;;31.00;;
47513;SDS011;33951;51.988;5.910;2022-11-04T00:52:29;33.63;;;27.17;;
47513;SDS011;33951;51.988;5.910;2022-11-04T00:55:02;31.95;;;23.98;;
47513;SDS011;33951;51.988;5.910;2022-11-04T00:57:33;19.13;;;17.15;;
47513;SDS011;33951;51.988;5.910;2022-11-04T06:20:08;22.35;;;12.18;;
47513;SDS011;33951;51.988;5.910;2022-11-04T06:46:00;15.25;;;9.23;;
47513;SDS011;33951;51.988;5.910;2022-11-04T06:48:32;20.40;;;10.50;;
47513;SDS011;33951;51.988;5.910;2022-11-04T06:50:58;23.63;;;11.98;;
47513;SDS011;33951;51.988;5.910;2022-11-04T06:53:25;29.42;;;11.77;;
47513;SDS011;33951;51.988;5.910;2022-11-04T06:55:51;20.20;;;11.13;;
47513;SDS011;33951;51.988;5.910;2022-11-04T06:58:25;18.60;;;10.52;;
47513;SDS011;33951;51.988;5.910;2022-11-04T07:14:39;21.30;;;10.35;;
47513;SDS011;33951;51.988;5.910;2022-11-04T07:28:25;17.10;;;11.30;;
47513;SDS011;33951;51.988;5.910;2022-11-04T07:53:09;25.13;;;11.00;;
47513;SDS011;33951;51.988;5.910;2022-11-04T07:55:36;27.08;;;11.80;;
47513;SDS011;33951;51.988;5.910;2022-11-04T07:58:02;22.13;;;10.32;;
47513;SDS011;33951;51.988;5.910;2022-11-04T08:00:28;25.20;;;11.57;;
47513;SDS011;33951;51.988;5.910;2022-11-04T08:02:54;24.13;;;12.50;;
47513;SDS011;33951;51.988;5.910;2022-11-04T08:05:20;23.65;;;12.10;;
47513;SDS011;33951;51.988;5.910;2022-11-04T08:07:45;20.95;;;11.07;;
47513;SDS011;33951;51.988;5.910;2022-11-04T08:10:11;25.17;;;13.20;;
47513;SDS011;33951;51.988;5.910;2022-11-04T08:12:44;24.70;;;11.82;;
47513;SDS011;33951;51.988;5.910;2022-11-04T08:15:10;25.77;;;15.20;;
47513;SDS011;33951;51.988;5.910;2022-11-04T08:17:35;22.13;;;11.20;;
47513;SDS011;33951;51.988;5.910;2022-11-04T08:20:01;24.60;;;12.18;;
47513;SDS011;33951;51.988;5.910;2022-11-04T08:22:27;29.50;;;16.15;;
47513;SDS011;33951;51.988;5.910;2022-11-04T08:24:52;22.88;;;13.30;;
47513;SDS011;33951;51.988;5.910;2022-11-04T08:27:18;24.45;;;12.07;;
47513;SDS011;33951;51.988;5.910;2022-11-04T08:29:43;18.65;;;10.93;;
47513;SDS011;33951;51.988;5.910;2022-11-04T08:32:09;20.67;;;10.93;;
47513;SDS011;33951;51.988;5.910;2022-11-04T08:34:34;19.77;;;10.82;;
47513;SDS011;33951;51.988;5.910;2022-11-04T08:37:00;23.70;;;16.10;;
47513;SDS011;33951;51.988;5.910;2022-11-04T08:39:26;20.25;;;12.57;;
47513;SDS011;33951;51.988;5.910;2022-11-04T08:41:51;31.05;;;22.40;;
47513;SDS011;33951;51.988;5.910;2022-11-04T08:44:17;34.97;;;21.77;;
47513;SDS011;33951;51.988;5.910;2022-11-04T08:46:43;21.65;;;10.98;;
47513;SDS011;33951;51.988;5.910;2022-11-04T08:49:09;18.77;;;9.98;;
47513;SDS011;33951;51.988;5.910;2022-11-04T08:51:36;22.80;;;10.00;;
47513;SDS011;33951;51.988;5.910;2022-11-04T08:54:05;22.17;;;9.52;;
47513;SDS011;33951;51.988;5.910;2022-11-04T08:56:31;24.27;;;11.07;;
47513;SDS011;33951;51.988;5.910;2022-11-04T08:58:59;22.30;;;10.82;;
47513;SDS011;33951;51.988;5.910;2022-11-04T09:01:29;20.23;;;9.32;;
47513;SDS011;33951;51.988;5.910;2022-11-04T09:03:56;26.27;;;13.65;;
47513;SDS011;33951;51.988;5.910;2022-11-04T09:06:27;33.95;;;19.50;;
47513;SDS011;33951;51.988;5.910;2022-11-04T09:08:55;16.67;;;9.40;;
47513;SDS011;33951;51.988;5.910;2022-11-04T09:11:26;22.70;;;10.10;;
47513;SDS011;33951;51.988;5.910;2022-11-04T09:13:52;18.33;;;9.35;;
47513;SDS011;33951;51.988;5.910;2022-11-04T09:16:18;27.17;;;9.75;;
47513;SDS011;33951;51.988;5.910;2022-11-04T09:18:43;17.10;;;9.23;;
47513;SDS011;33951;51.988;5.910;2022-11-04T09:21:11;21.08;;;9.50;;
47513;SDS011;33951;51.988;5.910;2022-11-04T09:23:37;20.02;;;9.82;;
47513;SDS011;33951;51.988;5.910;2022-11-04T09:26:04;17.73;;;8.63;;
47513;SDS011;33951;51.988;5.910;2022-11-04T09:28:31;21.30;;;9.30;;
47513;SDS011;33951;51.988;5.910;2022-11-04T09:30:57;19.40;;;8.30;;
47513;SDS011;33951;51.988;5.910;2022-11-04T09:33:23;18.73;;;9.30;;
47513;SDS011;33951;51.988;5.910;2022-11-04T09:35:55;20.45;;;8.88;;
47513;SDS011;33951;51.988;5.910;2022-11-04T09:38:21;24.05;;;13.57;;
47513;SDS011;33951;51.988;5.910;2022-11-04T09:40:47;24.25;;;12.65;;
47513;SDS011;33951;51.988;5.910;2022-11-04T09:45:52;22.35;;;13.52;;
47513;SDS011;33951;51.988;5.910;2022-11-04T09:50:53;19.95;;;12.45;;
47513;SDS011;33951;51.988;5.910;2022-11-04T09:53:25;20.30;;;11.95;;
47513;SDS011;33951;51.988;5.910;2022-11-04T09:56:02;21.15;;;12.10;;
47513;SDS011;33951;51.988;5.910;2022-11-04T09:58:37;29.08;;;15.32;;
47513;SDS011;33951;51.988;5.910;2022-11-04T10:09:56;27.20;;;14.70;;
47513;SDS011;33951;51.988;5.910;2022-11-04T10:23:40;25.95;;;13.40;;
47513;SDS011;33951;51.988;5.910;2022-11-04T10:29:03;27.38;;;16.98;;
47513;SDS011;33951;51.988;5.910;2022-11-04T10:31:33;25.50;;;14.63;;
47513;SDS011;33951;51.988;5.910;2022-11-04T10:34:11;23.55;;;16.02;;
47513;SDS011;33951;51.988;5.910;2022-11-04T10:36:47;23.48;;;15.38;;
47513;SDS011;33951;51.988;5.910;2022-11-04T10:39:24;23.88;;;14.00;;
47513;SDS011;33951;51.988;5.910;2022-11-04T10:41:52;22.48;;;14.18;;
47513;SDS011;33951;51.988;5.910;2022-11-04T10:44:23;27.35;;;14.25;;
47513;SDS011;33951;51.988;5.910;2022-11-04T10:49:56;23.00;;;15.52;;
47513;SDS011;33951;51.988;5.910;2022-11-04T10:52:25;21.65;;;14.77;;
47513;SDS011;33951;51.988;5.910;2022-11-04T10:54:51;24.17;;;15.20;;
47513;SDS011;33951;51.988;5.910;2022-11-04T10:57:18;25.40;;;16.77;;
47513;SDS011;33951;51.988;5.910;2022-11-04T11:02:22;26.27;;;15.23;;
47513;SDS011;33951;51.988;5.910;2022-11-04T11:07:49;22.17;;;15.15;;
47513;SDS011;33951;51.988;5.910;2022-11-04T11:10:27;22.83;;;15.23;;
47513;SDS011;33951;51.988;5.910;2022-11-04T11:12:59;25.45;;;14.52;;
47513;SDS011;33951;51.988;5.910;2022-11-04T11:15:34;32.38;;;16.50;;
47513;SDS011;33951;51.988;5.910;2022-11-04T11:20:30;25.75;;;16.00;;
47513;SDS011;33951;51.988;5.910;2022-11-04T11:22:57;26.15;;;16.52;;
47513;SDS011;33951;51.988;5.910;2022-11-04T11:25:28;22.02;;;15.98;;
47513;SDS011;33951;51.988;5.910;2022-11-04T11:27:59;24.02;;;15.10;;
47513;SDS011;33951;51.988;5.910;2022-11-04T11:30:31;20.42;;;14.80;;
47513;SDS011;33951;51.988;5.910;2022-11-04T11:33:18;30.48;;;17.10;;
47513;SDS011;33951;51.988;5.910;2022-11-04T11:35:52;21.58;;;14.95;;
47513;SDS011;33951;51.988;5.910;2022-11-04T11:38:24;26.33;;;14.73;;
47513;SDS011;33951;51.988;5.910;2022-11-04T11:41:07;24.27;;;15.88;;
47513;SDS011;33951;51.988;5.910;2022-11-04T11:43:39;29.27;;;16.10;;
47513;SDS011;33951;51.988;5.910;2022-11-04T11:46:09;21.02;;;15.18;;
47513;SDS011;33951;51.988;5.910;2022-11-04T11:48:40;21.92;;;15.93;;
47513;SDS011;33951;51.988;5.910;2022-11-04T11:51:11;21.35;;;15.57;;
47513;SDS011;33951;51.988;5.910;2022-11-04T11:53:38;26.10;;;15.73;;
47513;SDS011;33951;51.988;5.910;2022-11-04T11:58:59;21.13;;;15.07;;
47513;SDS011;33951;51.988;5.910;2022-11-04T12:01:51;22.75;;;15.38;;
47513;SDS011;33951;51.988;5.910;2022-11-04T12:04:23;23.13;;;14.20;;
47513;SDS011;33951;51.988;5.910;2022-11-04T12:07:05;22.23;;;14.55;;
47513;SDS011;33951;51.988;5.910;2022-11-04T12:13:02;27.75;;;17.17;;
47513;SDS011;33951;51.988;5.910;2022-11-04T12:15:40;24.30;;;15.80;;
47513;SDS011;33951;51.988;5.910;2022-11-04T12:23:54;27.40;;;16.85;;
47513;SDS011;33951;51.988;5.910;2022-11-04T12:26:47;22.33;;;16.42;;
47513;SDS011;33951;51.988;5.910;2022-11-04T12:37:43;18.58;;;14.88;;
47513;SDS011;33951;51.988;5.910;2022-11-04T12:40:46;22.25;;;15.50;;
47513;SDS011;33951;51.988;5.910;2022-11-04T12:46:19;27.02;;;17.75;;
47513;SDS011;33951;51.988;5.910;2022-11-04T12:51:40;22.80;;;17.05;;
47513;SDS011;33951;51.988;5.910;2022-11-04T12:57:23;22.65;;;16.35;;
47513;SDS011;33951;51.988;5.910;2022-11-04T13:00:04;19.02;;;15.38;;
47513;SDS011;33951;51.988;5.910;2022-11-04T13:02:43;24.10;;;16.27;;
47513;SDS011;33951;51.988;5.910;2022-11-04T13:08:04;26.55;;;17.38;;
47513;SDS011;33951;51.988;5.910;2022-11-04T13:10:38;21.02;;;16.73;;
47513;SDS011;33951;51.988;5.910;2022-11-04T13:13:13;21.55;;;17.42;;
47513;SDS011;33951;51.988;5.910;2022-11-04T13:15:53;24.08;;;17.23;;
47513;SDS011;33951;51.988;5.910;2022-11-04T13:18:22;19.75;;;17.55;;
47513;SDS011;33951;51.988;5.910;2022-11-04T13:20:52;24.05;;;18.92;;
47513;SDS011;33951;51.988;5.910;2022-11-04T13:23:39;24.90;;;18.33;;
47513;SDS011;33951;51.988;5.910;2022-11-04T13:26:28;27.38;;;17.67;;
47513;SDS011;33951;51.988;5.910;2022-11-04T13:28:56;23.10;;;16.80;;
47513;SDS011;33951;51.988;5.910;2022-11-04T13:36:27;20.67;;;18.05;;
47513;SDS011;33951;51.988;5.910;2022-11-04T13:44:50;28.77;;;17.10;;
47513;SDS011;33951;51.988;5.910;2022-11-04T13:47:34;22.35;;;15.57;;
47513;SDS011;33951;51.988;5.910;2022-11-04T13:50:12;18.17;;;15.25;;
47513;SDS011;33951;51.988;5.910;2022-11-04T13:53:07;21.77;;;14.38;;
47513;SDS011;33951;51.988;5.910;2022-11-04T13:58:29;23.60;;;14.50;;
47513;SDS011;33951;51.988;5.910;2022-11-04T14:01:37;16.83;;;13.90;;
47513;SDS011;33951;51.988;5.910;2022-11-04T14:04:31;19.00;;;14.02;;
47513;SDS011;33951;51.988;5.910;2022-11-04T14:08:06;28.35;;;14.98;;
47513;SDS011;33951;51.988;5.910;2022-11-04T14:23:19;21.92;;;14.65;;
47513;SDS011;33951;51.988;5.910;2022-11-04T14:38:33;26.70;;;15.75;;
47513;SDS011;33951;51.988;5.910;2022-11-04T14:44:50;20.30;;;14.75;;
47513;SDS011;33951;51.988;5.910;2022-11-04T15:17:03;3.55;;;1.08;;
47513;SDS011;33951;51.988;5.910;2022-11-04T15:22:50;2.83;;;0.90;;
47513;SDS011;33951;51.988;5.910;2022-11-04T15:25:42;3.90;;;1.77;;
47513;SDS011;33951;51.988;5.910;2022-11-04T15:28:28;6.43;;;1.65;;
47513;SDS011;33951;51.988;5.910;2022-11-04T15:31:01;2.92;;;1.13;;
47513;SDS011;33951;51.988;5.910;2022-11-04T15:33:40;3.60;;;1.13;;
47513;SDS011;33951;51.988;5.910;2022-11-04T15:36:15;4.47;;;1.15;;
47513;SDS011;33951;51.988;5.910;2022-11-04T15:38:51;7.97;;;1.42;;
47513;SDS011;33951;51.988;5.910;2022-11-04T15:41:27;4.70;;;1.10;;
47513;SDS011;33951;51.988;5.910;2022-11-04T15:44:16;2.33;;;1.05;;
47513;SDS011;33951;51.988;5.910;2022-11-04T15:46:47;6.35;;;2.20;;
47513;SDS011;33951;51.988;5.910;2022-11-04T15:49:22;4.35;;;1.30;;
47513;SDS011;33951;51.988;5.910;2022-11-04T15:51:49;4.43;;;1.20;;
47513;SDS011;33951;51.988;5.910;2022-11-04T15:54:19;4.22;;;1.10;;
47513;SDS011;33951;51.988;5.910;2022-11-04T15:56:53;4.82;;;1.10;;
47513;SDS011;33951;51.988;5.910;2022-11-04T15:59:31;3.63;;;1.52;;
47513;SDS011;33951;51.988;5.910;2022-11-04T16:01:58;2.55;;;1.35;;
47513;SDS011;33951;51.988;5.910;2022-11-04T16:04:27;1.95;;;1.02;;
47513;SDS011;33951;51.988;5.910;2022-11-04T16:12:53;3.92;;;1.27;;
47513;SDS011;33951;51.988;5.910;2022-11-04T16:18:25;8.40;;;2.05;;
47513;SDS011;33951;51.988;5.910;2022-11-04T16:24:22;4.00;;;1.55;;
47513;SDS011;33951;51.988;5.910;2022-11-04T16:26:53;4.10;;;1.45;;
47513;SDS011;33951;51.988;5.910;2022-11-04T16:29:21;2.03;;;1.30;;
47513;SDS011;33951;51.988;5.910;2022-11-04T16:34:39;4.18;;;1.75;;
47513;SDS011;33951;51.988;5.910;2022-11-04T16:37:12;4.25;;;2.17;;
47513;SDS011;33951;51.988;5.910;2022-11-04T16:39:38;4.28;;;1.80;;
47513;SDS011;33951;51.988;5.910;2022-11-04T16:42:04;4.57;;;2.33;;
47513;SDS011;33951;51.988;5.910;2022-11-04T16:44:30;3.20;;;1.73;;
47513;SDS011;33951;51.988;5.910;2022-11-04T16:46:56;9.65;;;2.53;;
47513;SDS011;33951;51.988;5.910;2022-11-04T16:49:26;5.97;;;1.88;;
47513;SDS011;33951;51.988;5.910;2022-11-04T16:51:53;9.38;;;2.20;;
47513;SDS011;33951;51.988;5.910;2022-11-04T16:54:21;6.03;;;1.85;;
47513;SDS011;33951;51.988;5.910;2022-11-04T16:56:47;3.55;;;1.67;;
47513;SDS011;33951;51.988;5.910;2022-11-04T16:59:13;2.40;;;1.55;;
47513;SDS011;33951;51.988;5.910;2022-11-04T17:01:39;5.88;;;2.10;;
47513;SDS011;33951;51.988;5.910;2022-11-04T17:04:05;3.03;;;1.40;;
47513;SDS011;33951;51.988;5.910;2022-11-04T17:06:33;5.95;;;3.83;;
47513;SDS011;33951;51.988;5.910;2022-11-04T17:08:59;7.80;;;3.08;;
47513;SDS011;33951;51.988;5.910;2022-11-04T17:11:26;7.55;;;3.03;;
47513;SDS011;33951;51.988;5.910;2022-11-04T17:13:54;2.95;;;1.88;;
47513;SDS011;33951;51.988;5.910;2022-11-04T17:16:22;6.38;;;2.40;;
47513;SDS011;33951;51.988;5.910;2022-11-04T17:18:48;5.03;;;2.05;;
47513;SDS011;33951;51.988;5.910;2022-11-04T17:21:14;7.35;;;2.40;;
47513;SDS011;33951;51.988;5.910;2022-11-04T17:23:44;4.32;;;2.28;;
47513;SDS011;33951;51.988;5.910;2022-11-04T17:26:13;5.32;;;2.60;;
47513;SDS011;33951;51.988;5.910;2022-11-04T17:28:41;7.82;;;4.00;;
47513;SDS011;33951;51.988;5.910;2022-11-04T17:31:23;6.95;;;3.15;;
47513;SDS011;33951;51.988;5.910;2022-11-04T17:33:49;5.13;;;4.10;;
47513;SDS011;33951;51.988;5.910;2022-11-04T17:36:15;6.90;;;4.07;;
47513;SDS011;33951;51.988;5.910;2022-11-04T17:38:43;8.52;;;4.30;;
47513;SDS011;33951;51.988;5.910;2022-11-04T17:41:09;9.15;;;4.60;;
47513;SDS011;33951;51.988;5.910;2022-11-04T17:43:53;8.27;;;4.50;;
47513;SDS011;33951;51.988;5.910;2022-11-04T17:46:27;6.78;;;4.20;;
47513;SDS011;33951;51.988;5.910;2022-11-04T17:49:15;10.68;;;4.47;;
47513;SDS011;33951;51.988;5.910;2022-11-04T17:51:45;5.35;;;4.15;;
47513;SDS011;33951;51.988;5.910;2022-11-04T17:54:16;11.55;;;4.22;;
47513;SDS011;33951;51.988;5.910;2022-11-04T17:56:42;7.22;;;3.85;;
47513;SDS011;33951;51.988;5.910;2022-11-04T17:59:11;4.80;;;3.42;;
47513;SDS011;33951;51.988;5.910;2022-11-04T18:01:39;4.63;;;3.55;;
47513;SDS011;33951;51.988;5.910;2022-11-04T18:04:05;4.53;;;3.25;;
47513;SDS011;33951;51.988;5.910;2022-11-04T18:06:39;14.50;;;7.20;;
47513;SDS011;33951;51.988;5.910;2022-11-04T18:09:06;19.70;;;11.57;;
47513;SDS011;33951;51.988;5.910;2022-11-04T18:11:34;7.72;;;4.20;;
47513;SDS011;33951;51.988;5.910;2022-11-04T18:14:22;5.18;;;3.75;;
47513;SDS011;33951;51.988;5.910;2022-11-04T18:16:48;5.20;;;3.78;;
47513;SDS011;33951;51.988;5.910;2022-11-04T18:19:18;8.32;;;3.60;;
47513;SDS011;33951;51.988;5.910;2022-11-04T18:21:45;9.15;;;3.67;;
47513;SDS011;33951;51.988;5.910;2022-11-04T18:24:13;10.00;;;5.35;;
47513;SDS011;33951;51.988;5.910;2022-11-04T18:26:39;9.88;;;5.07;;
47513;SDS011;33951;51.988;5.910;2022-11-04T18:29:05;7.15;;;4.70;;
47513;SDS011;33951;51.988;5.910;2022-11-04T18:31:32;15.75;;;10.48;;
47513;SDS011;33951;51.988;5.910;2022-11-04T18:34:00;28.58;;;17.98;;
47513;SDS011;33951;51.988;5.910;2022-11-04T18:36:31;17.17;;;10.02;;
47513;SDS011;33951;51.988;5.910;2022-11-04T18:38:57;27.40;;;17.45;;
47513;SDS011;33951;51.988;5.910;2022-11-04T18:41:27;25.42;;;15.13;;
47513;SDS011;33951;51.988;5.910;2022-11-04T18:43:56;17.77;;;10.05;;
47513;SDS011;33951;51.988;5.910;2022-11-04T18:46:21;10.00;;;6.38;;
47513;SDS011;33951;51.988;5.910;2022-11-04T18:55:10;7.57;;;5.85;;
47513;SDS011;33951;51.988;5.910;2022-11-04T18:57:36;8.95;;;6.10;;
47513;SDS011;33951;51.988;5.910;2022-11-04T19:00:04;10.57;;;5.53;;
47513;SDS011;33951;51.988;5.910;2022-11-04T19:02:33;13.02;;;6.07;;
47513;SDS011;33951;51.988;5.910;2022-11-04T19:05:02;11.27;;;6.40;;
47513;SDS011;33951;51.988;5.910;2022-11-04T19:07:31;9.18;;;6.43;;
47513;SDS011;33951;51.988;5.910;2022-11-04T19:09:57;9.45;;;6.88;;
47513;SDS011;33951;51.988;5.910;2022-11-04T19:12:23;41.45;;;22.58;;
47513;SDS011;33951;51.988;5.910;2022-11-04T19:15:07;24.95;;;14.38;;
47513;SDS011;33951;51.988;5.910;2022-11-04T19:17:34;22.45;;;13.65;;
47513;SDS011;33951;51.988;5.910;2022-11-04T19:20:01;18.92;;;12.40;;
47513;SDS011;33951;51.988;5.910;2022-11-04T19:22:27;11.63;;;9.00;;
47513;SDS011;33951;51.988;5.910;2022-11-04T19:24:53;15.80;;;9.63;;
47513;SDS011;33951;51.988;5.910;2022-11-04T19:27:19;16.35;;;8.90;;
47513;SDS011;33951;51.988;5.910;2022-11-04T19:29:46;13.38;;;9.10;;
47513;SDS011;33951;51.988;5.910;2022-11-04T19:32:12;19.30;;;13.00;;
47513;SDS011;33951;51.988;5.910;2022-11-04T19:34:45;20.02;;;11.60;;
47513;SDS011;33951;51.988;5.910;2022-11-04T19:37:11;16.70;;;9.27;;
47513;SDS011;33951;51.988;5.910;2022-11-04T19:39:45;15.23;;;9.13;;
47513;SDS011;33951;51.988;5.910;2022-11-04T19:42:10;18.17;;;8.30;;
47513;SDS011;33951;51.988;5.910;2022-11-04T19:44:55;13.45;;;9.30;;
47513;SDS011;33951;51.988;5.910;2022-11-04T19:47:21;15.15;;;9.32;;
47513;SDS011;33951;51.988;5.910;2022-11-04T19:49:46;17.27;;;10.40;;
47513;SDS011;33951;51.988;5.910;2022-11-04T19:52:22;21.98;;;15.02;;
47513;SDS011;33951;51.988;5.910;2022-11-04T19:54:50;24.63;;;13.27;;
47513;SDS011;33951;51.988;5.910;2022-11-04T19:57:16;26.80;;;16.48;;
47513;SDS011;33951;51.988;5.910;2022-11-04T19:59:45;22.52;;;14.45;;
47513;SDS011;33951;51.988;5.910;2022-11-04T20:02:16;20.02;;;12.80;;
47513;SDS011;33951;51.988;5.910;2022-11-04T20:04:47;17.35;;;10.82;;
47513;SDS011;33951;51.988;5.910;2022-11-04T20:07:17;12.98;;;9.63;;
47513;SDS011;33951;51.988;5.910;2022-11-04T20:09:43;14.23;;;9.73;;
47513;SDS011;33951;51.988;5.910;2022-11-04T20:12:08;22.75;;;12.52;;
47513;SDS011;33951;51.988;5.910;2022-11-04T20:15:12;18.92;;;9.18;;
47513;SDS011;33951;51.988;5.910;2022-11-04T20:17:44;21.95;;;9.98;;
47513;SDS011;33951;51.988;5.910;2022-11-04T20:20:10;13.32;;;8.63;;
47513;SDS011;33951;51.988;5.910;2022-11-04T20:22:36;17.85;;;8.82;;
47513;SDS011;33951;51.988;5.910;2022-11-04T20:25:02;19.88;;;10.05;;
47513;SDS011;33951;51.988;5.910;2022-11-04T20:27:40;15.75;;;8.20;;
47513;SDS011;33951;51.988;5.910;2022-11-04T20:30:16;12.23;;;9.07;;
47513;SDS011;33951;51.988;5.910;2022-11-04T20:32:44;11.85;;;7.57;;
47513;SDS011;33951;51.988;5.910;2022-11-04T20:35:10;13.68;;;7.65;;
47513;SDS011;33951;51.988;5.910;2022-11-04T20:37:36;13.38;;;7.47;;
47513;SDS011;33951;51.988;5.910;2022-11-04T20:40:08;17.40;;;7.97;;
47513;SDS011;33951;51.988;5.910;2022-11-04T20:42:34;15.43;;;7.60;;
47513;SDS011;33951;51.988;5.910;2022-11-04T20:45:00;16.70;;;8.52;;
47513;SDS011;33951;51.988;5.910;2022-11-04T20:47:29;18.08;;;9.15;;
47513;SDS011;33951;51.988;5.910;2022-11-04T20:49:55;14.77;;;7.90;;
47513;SDS011;33951;51.988;5.910;2022-11-04T20:52:27;16.40;;;7.75;;
47513;SDS011;33951;51.988;5.910;2022-11-04T20:55:06;13.73;;;8.68;;
47513;SDS011;33951;51.988;5.910;2022-11-04T20:57:37;11.60;;;7.25;;
47513;SDS011;33951;51.988;5.910;2022-11-04T21:00:08;16.33;;;8.43;;
47513;SDS011;33951;51.988;5.910;2022-11-04T21:02:37;14.55;;;9.05;;
47513;SDS011;33951;51.988;5.910;2022-11-04T21:05:06;17.75;;;9.15;;
47513;SDS011;33951;51.988;5.910;2022-11-04T21:07:37;18.80;;;11.07;;
47513;SDS011;33951;51.988;5.910;2022-11-04T21:12:53;18.55;;;10.07;;
47513;SDS011;33951;51.988;5.910;2022-11-04T21:15:19;17.27;;;11.27;;
47513;SDS011;33951;51.988;5.910;2022-11-04T21:18:03;24.55;;;13.07;;
47513;SDS011;33951;51.988;5.910;2022-11-04T21:20:38;21.52;;;13.18;;
47513;SDS011;33951;51.988;5.910;2022-11-04T21:23:18;24.17;;;13.80;;
47513;SDS011;33951;51.988;5.910;2022-11-04T21:41:30;15.57;;;9.13;;
47513;SDS011;33951;51.988;5.910;2022-11-04T21:51:03;13.90;;;8.43;;
47513;SDS011;33951;51.988;5.910;2022-11-04T22:22:32;13.35;;;7.07;;
47513;SDS011;33951;51.988;5.910;2022-11-04T22:39:36;14.52;;;9.27;;
47513;SDS011;33951;51.988;5.910;2022-11-04T22:53:16;14.35;;;10.82;;
47513;SDS011;33951;51.988;5.910;2022-11-04T22:56:03;21.42;;;12.13;;
47513;SDS011;33951;51.988;5.910;2022-11-04T23:14:09;20.52;;;11.48;;
47513;SDS011;33951;51.988;5.910;2022-11-04T23:23:50;16.13;;;10.98;;
47513;SDS011;33951;51.988;5.910;2022-11-04T23:26:34;18.13;;;14.18;;
47513;SDS011;33951;51.988;5.910;2022-11-04T23:29:00;18.67;;;10.10;;
47513;SDS011;33951;51.988;5.910;2022-11-04T23:31:44;18.70;;;10.30;;
47513;SDS011;33951;51.988;5.910;2022-11-04T23:34:09;18.00;;;11.73;;
47513;SDS011;33951;51.988;5.910;2022-11-04T23:36:56;17.67;;;10.43;;
47513;SDS011;33951;51.988;5.910;2022-11-04T23:39:41;15.95;;;11.48;;
47513;SDS011;33951;51.988;5.910;2022-11-04T23:42:15;13.18;;;10.00;;
47513;SDS011;33951;51.988;5.910;2022-11-04T23:44:47;13.60;;;10.20;;
47513;SDS011;33951;51.988;5.910;2022-11-04T23:47:42;15.43;;;10.40;;
47513;SDS011;33951;51.988;5.910;2022-11-04T23:50:29;13.68;;;10.32;;
47513;SDS011;33951;51.988;5.910;2022-11-04T23:53:19;17.33;;;10.77;;
47513;SDS011;33951;51.988;5.910;2022-11-04T23:56:07;18.90;;;13.68;;
47513;SDS011;33951;51.988;5.910;2022-11-04T23:58:53;16.13;;;10.65;;
